sensor_id;sensor_type;location;lat;lon;timestamp;pressure;altitude;pressure_sealevel;temperature;humidity
49585;BME280;35491;49.142;9.210;2022-11-03T03:31:49;100122.16;;;6.98;79.23
49585;BME280;35491;49.142;9.210;2022-11-03T03:33:46;100113.09;;;7.00;79.29
49585;BME280;35491;49.142;9.210;2022-11-03T03:36:14;100128.22;;;7.00;79.20
49585;BME280;35491;49.142;9.210;2022-11-03T03:39:44;100121.78;;;6.91;79.72
49585;BME280;35491;49.142;9.210;2022-11-03T03:45:33;100120.81;;;6.81;79.42
49585;BME280;35491;49.142;9.210;2022-11-03T03:47:26;100117.19;;;6.82;79.24
49585;BME280;35491;49.142;9.210;2022-11-03T04:10:44;100069.63;;;6.79;79.69
49585;BME280;35491;49.142;9.210;2022-11-03T04:12:27;100069.34;;;6.82;80.02
49585;BME280;35491;49.142;9.210;2022-11-03T04:13:36;100078.19;;;6.82;79.72
49585;BME280;35491;49.142;9.210;2022-11-03T04:14:46;100072.88;;;6.82;79.71
49585;BME280;35491;49.142;9.210;2022-11-03T04:17:37;100060.91;;;6.77;79.72
49585;BME280;35491;49.142;9.210;2022-11-03T04:18:45;100066.09;;;6.78;79.87
49585;BME280;35491;49.142;9.210;2022-11-03T04:20:18;100064.03;;;6.82;79.94
49585;BME280;35491;49.142;9.210;2022-11-03T04:23:49;100051.34;;;6.85;79.62
49585;BME280;35491;49.142;9.210;2022-11-03T04:25:11;100053.19;;;6.85;79.64
49585;BME280;35491;49.142;9.210;2022-11-03T04:26:44;100041.59;;;6.86;79.18
49585;BME280;35491;49.142;9.210;2022-11-03T04:27:58;100040.84;;;6.84;79.44
49585;BME280;35491;49.142;9.210;2022-11-03T04:29:00;100040.03;;;6.83;79.38
49585;BME280;35491;49.142;9.210;2022-11-03T04:30:13;100040.13;;;6.82;79.70
49585;BME280;35491;49.142;9.210;2022-11-03T04:31:16;100037.50;;;6.70;79.65
49585;BME280;35491;49.142;9.210;2022-11-03T04:32:36;100035.66;;;6.60;80.11
49585;BME280;35491;49.142;9.210;2022-11-03T04:33:41;100039.88;;;6.62;79.88
49585;BME280;35491;49.142;9.210;2022-11-03T04:34:44;100030.47;;;6.58;80.23
49585;BME280;35491;49.142;9.210;2022-11-03T04:35:51;100034.69;;;6.61;80.40
49585;BME280;35491;49.142;9.210;2022-11-03T04:36:54;100033.59;;;6.63;80.34
49585;BME280;35491;49.142;9.210;2022-11-03T04:38:01;100036.75;;;6.68;80.19
49585;BME280;35491;49.142;9.210;2022-11-03T04:39:15;100038.44;;;6.69;79.80
49585;BME280;35491;49.142;9.210;2022-11-03T04:40:21;100040.16;;;6.70;79.96
49585;BME280;35491;49.142;9.210;2022-11-03T04:41:27;100037.22;;;6.74;79.86
49585;BME280;35491;49.142;9.210;2022-11-03T04:42:34;100039.28;;;6.70;79.94
49585;BME280;35491;49.142;9.210;2022-11-03T04:43:37;100049.78;;;6.71;79.83
49585;BME280;35491;49.142;9.210;2022-11-03T04:44:46;100039.16;;;6.71;79.50
49585;BME280;35491;49.142;9.210;2022-11-03T04:45:51;100035.78;;;6.69;79.39
49585;BME280;35491;49.142;9.210;2022-11-03T04:46:58;100035.06;;;6.67;79.49
49585;BME280;35491;49.142;9.210;2022-11-03T04:48:10;100039.16;;;6.60;79.24
49585;BME280;35491;49.142;9.210;2022-11-03T04:49:27;100036.75;;;6.57;79.39
49585;BME280;35491;49.142;9.210;2022-11-03T04:50:52;100035.88;;;6.56;79.67
49585;BME280;35491;49.142;9.210;2022-11-03T04:52:21;100034.06;;;6.46;79.70
49585;BME280;35491;49.142;9.210;2022-11-03T04:53:54;100031.06;;;6.50;79.73
49585;BME280;35491;49.142;9.210;2022-11-03T04:55:33;100027.56;;;6.50;79.82
49585;BME280;35491;49.142;9.210;2022-11-03T04:56:58;100030.22;;;6.50;79.51
49585;BME280;35491;49.142;9.210;2022-11-03T04:58:16;100021.03;;;6.54;79.65
49585;BME280;35491;49.142;9.210;2022-11-03T04:59:24;100033.34;;;6.55;79.45
49585;BME280;35491;49.142;9.210;2022-11-03T05:00:27;100013.66;;;6.58;79.22
49585;BME280;35491;49.142;9.210;2022-11-03T05:01:41;100020.94;;;6.55;79.36
49585;BME280;35491;49.142;9.210;2022-11-03T05:02:53;100015.13;;;6.50;79.18
49585;BME280;35491;49.142;9.210;2022-11-03T05:04:16;100016.22;;;6.48;79.34
49585;BME280;35491;49.142;9.210;2022-11-03T05:42:42;99974.66;;;6.13;79.79
49585;BME280;35491;49.142;9.210;2022-11-03T05:43:58;99976.34;;;6.14;79.93
49585;BME280;35491;49.142;9.210;2022-11-03T05:45:37;99971.50;;;6.19;79.76
49585;BME280;35491;49.142;9.210;2022-11-03T05:47:23;99968.34;;;6.02;80.08
49585;BME280;35491;49.142;9.210;2022-11-03T05:48:37;99958.94;;;6.09;80.05
49585;BME280;35491;49.142;9.210;2022-11-03T05:49:52;99969.56;;;6.09;79.84
49585;BME280;35491;49.142;9.210;2022-11-03T05:51:17;99957.03;;;6.12;79.91
49585;BME280;35491;49.142;9.210;2022-11-03T05:52:28;99952.69;;;6.11;79.98
49585;BME280;35491;49.142;9.210;2022-11-03T05:53:37;99951.72;;;6.12;79.96
49585;BME280;35491;49.142;9.210;2022-11-03T05:54:52;99952.44;;;6.14;80.08
49585;BME280;35491;49.142;9.210;2022-11-03T05:56:00;99954.03;;;6.16;79.78
49585;BME280;35491;49.142;9.210;2022-11-03T05:57:13;99950.16;;;6.20;79.53
49585;BME280;35491;49.142;9.210;2022-11-03T05:58:29;99954.50;;;6.21;79.60
49585;BME280;35491;49.142;9.210;2022-11-03T05:59:35;99955.09;;;6.25;79.42
49585;BME280;35491;49.142;9.210;2022-11-03T06:00:45;99954.88;;;6.28;79.36
49585;BME280;35491;49.142;9.210;2022-11-03T06:01:51;99971.28;;;6.33;79.26
49585;BME280;35491;49.142;9.210;2022-11-03T06:03:00;99957.78;;;6.36;79.18
49585;BME280;35491;49.142;9.210;2022-11-03T06:04:18;99967.44;;;6.37;79.18
49585;BME280;35491;49.142;9.210;2022-11-03T06:05:27;99962.59;;;6.43;78.92
49585;BME280;35491;49.142;9.210;2022-11-03T06:06:35;99958.28;;;6.42;78.44
49585;BME280;35491;49.142;9.210;2022-11-03T06:07:47;99958.28;;;6.42;78.88
49585;BME280;35491;49.142;9.210;2022-11-03T06:08:54;99957.78;;;6.48;78.65
49585;BME280;35491;49.142;9.210;2022-11-03T06:10:23;99954.38;;;6.46;78.44
49585;BME280;35491;49.142;9.210;2022-11-03T06:11:34;99950.63;;;6.48;78.53
49585;BME280;35491;49.142;9.210;2022-11-03T06:12:45;99958.75;;;6.47;78.63
49585;BME280;35491;49.142;9.210;2022-11-03T06:13:55;99947.38;;;6.45;78.16
49585;BME280;35491;49.142;9.210;2022-11-03T06:15:07;99955.34;;;6.45;78.50
49585;BME280;35491;49.142;9.210;2022-11-03T06:16:40;99953.78;;;6.42;78.52
49585;BME280;35491;49.142;9.210;2022-11-03T06:22:03;99941.84;;;6.14;79.21
49585;BME280;35491;49.142;9.210;2022-11-03T06:25:13;99932.88;;;6.03;79.74
49585;BME280;35491;49.142;9.210;2022-11-03T06:26:26;99932.63;;;6.06;79.51
49585;BME280;35491;49.142;9.210;2022-11-03T06:27:31;99929.41;;;6.14;79.48
49585;BME280;35491;49.142;9.210;2022-11-03T06:28:55;99932.41;;;6.09;79.11
49585;BME280;35491;49.142;9.210;2022-11-03T06:30:31;99921.44;;;6.14;79.29
49585;BME280;35491;49.142;9.210;2022-11-03T06:39:22;99907.63;;;5.98;79.68
49585;BME280;35491;49.142;9.210;2022-11-03T06:40:33;99894.94;;;5.90;80.04
49585;BME280;35491;49.142;9.210;2022-11-03T06:41:35;99894.72;;;5.93;80.21
49585;BME280;35491;49.142;9.210;2022-11-03T06:42:40;99895.47;;;5.95;79.97
49585;BME280;35491;49.142;9.210;2022-11-03T06:43:45;99888.97;;;5.99;79.94
49585;BME280;35491;49.142;9.210;2022-11-03T06:44:52;99897.03;;;5.98;80.02
49585;BME280;35491;49.142;9.210;2022-11-03T06:46:20;99899.09;;;6.05;79.94
49585;BME280;35491;49.142;9.210;2022-11-03T06:47:52;99897.53;;;6.03;79.80
49585;BME280;35491;49.142;9.210;2022-11-03T06:49:34;99889.94;;;6.09;79.50
49585;BME280;35491;49.142;9.210;2022-11-03T06:50:48;99897.19;;;6.19;79.42
49585;BME280;35491;49.142;9.210;2022-11-03T06:52:01;99895.84;;;6.24;78.90
49585;BME280;35491;49.142;9.210;2022-11-03T06:55:47;99909.38;;;6.21;78.85
49585;BME280;35491;49.142;9.210;2022-11-03T06:57:17;99912.25;;;6.30;78.77
49585;BME280;35491;49.142;9.210;2022-11-03T06:59:27;99907.81;;;6.42;78.29
49585;BME280;35491;49.142;9.210;2022-11-03T07:01:34;99917.56;;;6.41;78.08
49585;BME280;35491;49.142;9.210;2022-11-03T07:09:35;99908.97;;;6.71;77.62
49585;BME280;35491;49.142;9.210;2022-11-03T07:10:42;99911.63;;;6.71;77.81
49585;BME280;35491;49.142;9.210;2022-11-03T07:14:02;99909.59;;;6.75;77.63
49585;BME280;35491;49.142;9.210;2022-11-03T07:20:13;99899.34;;;6.59;78.54
49585;BME280;35491;49.142;9.210;2022-11-03T07:21:31;99892.09;;;6.61;78.12
49585;BME280;35491;49.142;9.210;2022-11-03T07:22:36;99888.94;;;6.67;78.21
49585;BME280;35491;49.142;9.210;2022-11-03T07:23:37;99881.56;;;6.71;78.18
49585;BME280;35491;49.142;9.210;2022-11-03T07:24:46;99877.81;;;6.74;78.03
49585;BME280;35491;49.142;9.210;2022-11-03T07:25:50;99879.88;;;6.70;78.15
49585;BME280;35491;49.142;9.210;2022-11-03T07:27:06;99883.75;;;6.66;78.24
49585;BME280;35491;49.142;9.210;2022-11-03T07:28:16;99887.00;;;6.69;78.80
49585;BME280;35491;49.142;9.210;2022-11-03T07:29:20;99875.28;;;6.72;78.63
49585;BME280;35491;49.142;9.210;2022-11-03T07:30:36;99880.09;;;6.78;78.83
49585;BME280;35491;49.142;9.210;2022-11-03T07:34:00;99871.28;;;6.78;78.92
49585;BME280;35491;49.142;9.210;2022-11-03T07:35:17;99868.16;;;6.72;78.68
49585;BME280;35491;49.142;9.210;2022-11-03T07:38:10;99857.88;;;6.79;78.77
49585;BME280;35491;49.142;9.210;2022-11-03T07:39:17;99859.31;;;6.83;78.73
49585;BME280;35491;49.142;9.210;2022-11-03T07:40:25;99847.22;;;6.91;78.42
49585;BME280;35491;49.142;9.210;2022-11-03T07:41:30;99856.75;;;6.93;78.02
49585;BME280;35491;49.142;9.210;2022-11-03T07:42:36;99851.09;;;6.86;78.06
49585;BME280;35491;49.142;9.210;2022-11-03T07:43:37;99849.16;;;6.89;77.92
49585;BME280;35491;49.142;9.210;2022-11-03T07:44:41;99850.25;;;6.86;78.15
49585;BME280;35491;49.142;9.210;2022-11-03T07:45:48;99846.72;;;6.85;77.91
49585;BME280;35491;49.142;9.210;2022-11-03T07:46:50;99849.25;;;6.98;77.89
49585;BME280;35491;49.142;9.210;2022-11-03T07:47:54;99853.19;;;7.04;77.84
49585;BME280;35491;49.142;9.210;2022-11-03T07:48:57;99840.56;;;6.96;77.36
49585;BME280;35491;49.142;9.210;2022-11-03T07:50:12;99844.97;;;7.07;77.27
49585;BME280;35491;49.142;9.210;2022-11-03T07:51:19;99844.72;;;7.10;77.32
49585;BME280;35491;49.142;9.210;2022-11-03T07:52:24;99844.84;;;7.09;77.40
49585;BME280;35491;49.142;9.210;2022-11-03T07:53:37;99847.72;;;7.17;77.42
49585;BME280;35491;49.142;9.210;2022-11-03T07:54:40;99841.66;;;7.26;77.16
49585;BME280;35491;49.142;9.210;2022-11-03T07:55:47;99845.22;;;7.37;77.11
49585;BME280;35491;49.142;9.210;2022-11-03T07:56:51;99832.50;;;7.40;76.74
49585;BME280;35491;49.142;9.210;2022-11-03T07:58:00;99837.03;;;7.49;76.79
49585;BME280;35491;49.142;9.210;2022-11-03T08:02:47;99826.56;;;7.79;76.00
49585;BME280;35491;49.142;9.210;2022-11-03T08:03:56;99829.41;;;7.87;75.67
49585;BME280;35491;49.142;9.210;2022-11-03T08:04:59;99824.25;;;7.95;75.61
49585;BME280;35491;49.142;9.210;2022-11-03T08:06:04;99820.78;;;8.05;75.28
49585;BME280;35491;49.142;9.210;2022-11-03T08:07:05;99821.25;;;8.10;75.00
49585;BME280;35491;49.142;9.210;2022-11-03T08:10:24;99815.19;;;8.08;74.71
49585;BME280;35491;49.142;9.210;2022-11-03T08:11:32;99813.66;;;8.05;74.25
49585;BME280;35491;49.142;9.210;2022-11-03T08:12:36;99809.88;;;8.08;74.65
49585;BME280;35491;49.142;9.210;2022-11-03T08:13:37;99812.78;;;8.05;74.81
49585;BME280;35491;49.142;9.210;2022-11-03T08:14:41;99809.63;;;8.11;74.60
49585;BME280;35491;49.142;9.210;2022-11-03T08:15:45;99806.66;;;8.14;74.59
49585;BME280;35491;49.142;9.210;2022-11-03T08:16:47;99799.81;;;8.11;74.25
49585;BME280;35491;49.142;9.210;2022-11-03T08:17:51;99801.22;;;8.16;74.39
49585;BME280;35491;49.142;9.210;2022-11-03T08:18:53;99797.41;;;8.08;74.48
49585;BME280;35491;49.142;9.210;2022-11-03T08:19:57;99798.97;;;8.11;74.46
49585;BME280;35491;49.142;9.210;2022-11-03T08:20:59;99792.38;;;8.15;74.74
49585;BME280;35491;49.142;9.210;2022-11-03T08:22:03;99793.34;;;8.14;74.48
49585;BME280;35491;49.142;9.210;2022-11-03T08:23:08;99797.44;;;8.18;74.64
49585;BME280;35491;49.142;9.210;2022-11-03T08:24:12;99788.34;;;8.21;74.57
49585;BME280;35491;49.142;9.210;2022-11-03T08:25:16;99787.78;;;8.27;74.49
49585;BME280;35491;49.142;9.210;2022-11-03T08:27:59;99781.22;;;8.31;74.34
49585;BME280;35491;49.142;9.210;2022-11-03T08:29:02;99784.72;;;8.32;74.57
49585;BME280;35491;49.142;9.210;2022-11-03T08:30:07;99771.75;;;8.48;74.44
49585;BME280;35491;49.142;9.210;2022-11-03T08:31:10;99756.75;;;8.57;74.04
49585;BME280;35491;49.142;9.210;2022-11-03T08:32:14;99757.31;;;8.70;73.75
49585;BME280;35491;49.142;9.210;2022-11-03T08:33:16;99752.56;;;8.74;73.71
49585;BME280;35491;49.142;9.210;2022-11-03T08:34:20;99748.34;;;8.81;73.42
49585;BME280;35491;49.142;9.210;2022-11-03T08:35:24;99740.47;;;8.89;73.27
49585;BME280;35491;49.142;9.210;2022-11-03T08:36:26;99735.28;;;8.98;73.05
49585;BME280;35491;49.142;9.210;2022-11-03T08:37:34;99735.97;;;9.00;72.88
49585;BME280;35491;49.142;9.210;2022-11-03T08:38:36;99727.44;;;9.06;72.88
49585;BME280;35491;49.142;9.210;2022-11-03T08:44:01;99718.09;;;9.30;72.22
49585;BME280;35491;49.142;9.210;2022-11-03T08:45:18;99714.97;;;9.44;72.17
49585;BME280;35491;49.142;9.210;2022-11-03T08:46:29;99722.69;;;9.47;71.64
49585;BME280;35491;49.142;9.210;2022-11-03T08:47:53;99720.19;;;9.36;71.66
49585;BME280;35491;49.142;9.210;2022-11-03T08:48:55;99710.66;;;9.33;71.77
49585;BME280;35491;49.142;9.210;2022-11-03T08:49:59;99713.63;;;9.30;71.25
49585;BME280;35491;49.142;9.210;2022-11-03T08:51:01;99715.16;;;9.33;71.65
49585;BME280;35491;49.142;9.210;2022-11-03T08:52:05;99719.75;;;9.41;71.50
49585;BME280;35491;49.142;9.210;2022-11-03T08:53:06;99715.38;;;9.49;71.43
49585;BME280;35491;49.142;9.210;2022-11-03T08:54:11;99716.56;;;9.65;71.31
49585;BME280;35491;49.142;9.210;2022-11-03T08:55:13;99704.03;;;9.75;71.07
49585;BME280;35491;49.142;9.210;2022-11-03T08:56:17;99704.13;;;9.83;70.91
49585;BME280;35491;49.142;9.210;2022-11-03T08:57:21;99704.34;;;10.00;70.40
49585;BME280;35491;49.142;9.210;2022-11-03T08:58:33;99701.88;;;10.07;69.81
49585;BME280;35491;49.142;9.210;2022-11-03T08:59:40;99706.03;;;10.19;70.04
49585;BME280;35491;49.142;9.210;2022-11-03T09:00:41;99699.78;;;10.28;69.74
49585;BME280;35491;49.142;9.210;2022-11-03T09:01:45;99703.44;;;10.27;69.65
49585;BME280;35491;49.142;9.210;2022-11-03T09:02:49;99712.25;;;10.38;69.22
49585;BME280;35491;49.142;9.210;2022-11-03T09:03:53;99712.38;;;10.36;69.39
49585;BME280;35491;49.142;9.210;2022-11-03T09:04:55;99716.34;;;10.32;69.39
49585;BME280;35491;49.142;9.210;2022-11-03T09:05:59;99717.16;;;10.42;69.72
49585;BME280;35491;49.142;9.210;2022-11-03T09:07:03;99715.94;;;10.55;69.42
49585;BME280;35491;49.142;9.210;2022-11-03T09:08:05;99712.88;;;10.50;68.63
49585;BME280;35491;49.142;9.210;2022-11-03T09:09:10;99710.13;;;10.59;68.91
49585;BME280;35491;49.142;9.210;2022-11-03T09:10:11;99715.09;;;10.54;68.77
49585;BME280;35491;49.142;9.210;2022-11-03T09:11:16;99707.22;;;10.53;68.72
49585;BME280;35491;49.142;9.210;2022-11-03T09:12:18;99708.28;;;10.60;68.85
49585;BME280;35491;49.142;9.210;2022-11-03T09:13:23;99701.19;;;10.69;68.65
49585;BME280;35491;49.142;9.210;2022-11-03T09:14:27;99697.75;;;10.76;68.47
49585;BME280;35491;49.142;9.210;2022-11-03T09:15:32;99693.72;;;10.72;67.87
49585;BME280;35491;49.142;9.210;2022-11-03T09:16:36;99696.91;;;10.76;68.38
49585;BME280;35491;49.142;9.210;2022-11-03T09:17:38;99690.72;;;10.75;68.17
49585;BME280;35491;49.142;9.210;2022-11-03T09:18:42;99684.44;;;10.85;68.11
49585;BME280;35491;49.142;9.210;2022-11-03T09:19:43;99691.22;;;10.97;68.10
49585;BME280;35491;49.142;9.210;2022-11-03T09:20:47;99688.44;;;11.07;68.03
49585;BME280;35491;49.142;9.210;2022-11-03T09:21:51;99677.97;;;11.14;68.10
49585;BME280;35491;49.142;9.210;2022-11-03T09:22:53;99685.72;;;11.25;67.98
49585;BME280;35491;49.142;9.210;2022-11-03T09:23:58;99681.09;;;11.35;67.72
49585;BME280;35491;49.142;9.210;2022-11-03T09:25:20;99676.72;;;11.34;66.20
49585;BME280;35491;49.142;9.210;2022-11-03T09:27:19;99674.91;;;11.35;66.88
49585;BME280;35491;49.142;9.210;2022-11-03T09:28:31;99677.53;;;11.27;67.46
49585;BME280;35491;49.142;9.210;2022-11-03T09:29:35;99676.91;;;11.33;67.08
49585;BME280;35491;49.142;9.210;2022-11-03T09:30:42;99674.44;;;11.39;66.98
49585;BME280;35491;49.142;9.210;2022-11-03T09:31:44;99669.63;;;11.51;67.09
49585;BME280;35491;49.142;9.210;2022-11-03T09:32:48;99671.81;;;11.56;66.78
49585;BME280;35491;49.142;9.210;2022-11-03T09:33:58;99675.50;;;11.55;66.91
49585;BME280;35491;49.142;9.210;2022-11-03T09:34:59;99671.00;;;11.55;66.64
49585;BME280;35491;49.142;9.210;2022-11-03T09:36:04;99678.53;;;11.52;66.48
49585;BME280;35491;49.142;9.210;2022-11-03T09:37:06;99670.91;;;11.39;66.86
49585;BME280;35491;49.142;9.210;2022-11-03T09:38:10;99670.38;;;11.35;66.89
49585;BME280;35491;49.142;9.210;2022-11-03T09:39:14;99662.78;;;11.49;66.86
49585;BME280;35491;49.142;9.210;2022-11-03T09:40:40;99666.59;;;11.46;66.68
49585;BME280;35491;49.142;9.210;2022-11-03T09:41:45;99664.16;;;11.61;66.62
49585;BME280;35491;49.142;9.210;2022-11-03T09:42:48;99666.38;;;11.74;65.91
49585;BME280;35491;49.142;9.210;2022-11-03T09:43:55;99659.88;;;11.77;65.81
49585;BME280;35491;49.142;9.210;2022-11-03T09:45:01;99660.88;;;11.84;66.12
49585;BME280;35491;49.142;9.210;2022-11-03T09:49:59;99649.59;;;11.98;65.76
49585;BME280;35491;49.142;9.210;2022-11-03T09:51:51;99641.88;;;12.04;65.50
49585;BME280;35491;49.142;9.210;2022-11-03T09:54:58;99644.56;;;12.04;65.55
49585;BME280;35491;49.142;9.210;2022-11-03T09:56:17;99640.34;;;11.93;65.77
49585;BME280;35491;49.142;9.210;2022-11-03T10:01:15;99625.59;;;11.89;66.03
49585;BME280;35491;49.142;9.210;2022-11-03T10:02:23;99624.78;;;11.96;66.41
49585;BME280;35491;49.142;9.210;2022-11-03T10:05:26;99616.06;;;11.94;66.13
49585;BME280;35491;49.142;9.210;2022-11-03T10:06:31;99620.78;;;12.00;66.30
49585;BME280;35491;49.142;9.210;2022-11-03T10:07:37;99615.97;;;12.12;66.36
49585;BME280;35491;49.142;9.210;2022-11-03T10:08:46;99624.19;;;12.27;65.77
49585;BME280;35491;49.142;9.210;2022-11-03T10:09:51;99622.00;;;12.31;65.59
49585;BME280;35491;49.142;9.210;2022-11-03T10:11:00;99616.97;;;12.36;65.77
49585;BME280;35491;49.142;9.210;2022-11-03T10:12:08;99600.88;;;12.44;65.05
49585;BME280;35491;49.142;9.210;2022-11-03T10:16:46;99597.53;;;12.67;65.20
49585;BME280;35491;49.142;9.210;2022-11-03T10:18:19;99595.00;;;12.82;64.88
49585;BME280;35491;49.142;9.210;2022-11-03T10:21:03;99595.25;;;13.04;64.79
49585;BME280;35491;49.142;9.210;2022-11-03T10:22:41;99590.59;;;12.98;65.11
49585;BME280;35491;49.142;9.210;2022-11-03T10:23:49;99588.28;;;12.86;65.74
49585;BME280;35491;49.142;9.210;2022-11-03T10:26:45;99586.69;;;13.08;65.21
49585;BME280;35491;49.142;9.210;2022-11-03T10:29:44;99579.22;;;12.87;65.90
49585;BME280;35491;49.142;9.210;2022-11-03T10:30:54;99580.22;;;13.03;65.21
49585;BME280;35491;49.142;9.210;2022-11-03T10:31:58;99570.44;;;13.10;65.53
49585;BME280;35491;49.142;9.210;2022-11-03T10:33:28;99568.41;;;13.20;64.81
49585;BME280;35491;49.142;9.210;2022-11-03T10:35:30;99566.47;;;12.89;65.54
49585;BME280;35491;49.142;9.210;2022-11-03T10:36:37;99567.41;;;13.13;65.43
49585;BME280;35491;49.142;9.210;2022-11-03T10:37:41;99563.44;;;13.01;65.46
49585;BME280;35491;49.142;9.210;2022-11-03T10:39:28;99568.75;;;13.17;65.12
49585;BME280;35491;49.142;9.210;2022-11-03T10:40:36;99563.19;;;13.27;64.74
49585;BME280;35491;49.142;9.210;2022-11-03T10:42:15;99562.50;;;13.25;64.57
49585;BME280;35491;49.142;9.210;2022-11-03T10:43:33;99561.69;;;13.16;65.28
49585;BME280;35491;49.142;9.210;2022-11-03T10:44:37;99561.34;;;13.19;65.08
49585;BME280;35491;49.142;9.210;2022-11-03T10:45:42;99564.16;;;13.34;64.87
49585;BME280;35491;49.142;9.210;2022-11-03T10:46:55;99558.25;;;13.47;64.63
49585;BME280;35491;49.142;9.210;2022-11-03T10:48:04;99555.03;;;13.52;64.28
49585;BME280;35491;49.142;9.210;2022-11-03T10:49:11;99546.13;;;13.51;63.99
49585;BME280;35491;49.142;9.210;2022-11-03T10:50:42;99540.41;;;13.54;63.76
49585;BME280;35491;49.142;9.210;2022-11-03T10:53:56;99533.03;;;13.56;63.51
49585;BME280;35491;49.142;9.210;2022-11-03T10:55:00;99521.75;;;13.61;63.96
49585;BME280;35491;49.142;9.210;2022-11-03T10:56:06;99522.94;;;13.59;63.73
49585;BME280;35491;49.142;9.210;2022-11-03T10:57:16;99520.19;;;13.67;63.51
49585;BME280;35491;49.142;9.210;2022-11-03T10:58:28;99522.88;;;13.67;63.22
49585;BME280;35491;49.142;9.210;2022-11-03T10:59:32;99521.34;;;13.72;63.50
49585;BME280;35491;49.142;9.210;2022-11-03T11:00:39;99521.22;;;13.66;63.55
49585;BME280;35491;49.142;9.210;2022-11-03T11:02:07;99514.28;;;13.71;63.23
49585;BME280;35491;49.142;9.210;2022-11-03T11:03:22;99505.16;;;13.81;63.56
49585;BME280;35491;49.142;9.210;2022-11-03T11:04:26;99502.28;;;13.82;63.09
49585;BME280;35491;49.142;9.210;2022-11-03T11:05:31;99501.59;;;13.88;63.19
49585;BME280;35491;49.142;9.210;2022-11-03T11:06:35;99497.03;;;13.89;63.18
49585;BME280;35491;49.142;9.210;2022-11-03T11:08:09;99500.50;;;13.98;62.75
49585;BME280;35491;49.142;9.210;2022-11-03T11:09:32;99492.25;;;13.99;63.08
49585;BME280;35491;49.142;9.210;2022-11-03T11:10:36;99486.00;;;14.07;62.76
49585;BME280;35491;49.142;9.210;2022-11-03T11:11:58;99491.25;;;14.00;62.53
49585;BME280;35491;49.142;9.210;2022-11-03T11:13:22;99486.00;;;14.07;62.13
49585;BME280;35491;49.142;9.210;2022-11-03T11:14:35;99488.84;;;14.06;62.41
49585;BME280;35491;49.142;9.210;2022-11-03T11:15:39;99489.56;;;13.99;62.27
49585;BME280;35491;49.142;9.210;2022-11-03T11:16:48;99486.63;;;14.09;62.42
49585;BME280;35491;49.142;9.210;2022-11-03T11:17:50;99478.94;;;14.06;62.37
49585;BME280;35491;49.142;9.210;2022-11-03T11:19:03;99480.06;;;14.12;62.38
49585;BME280;35491;49.142;9.210;2022-11-03T11:20:27;99476.06;;;14.08;62.22
49585;BME280;35491;49.142;9.210;2022-11-03T11:24:58;99460.84;;;14.00;62.84
49585;BME280;35491;49.142;9.210;2022-11-03T11:26:16;99460.13;;;14.06;62.78
49585;BME280;35491;49.142;9.210;2022-11-03T11:29:34;99444.59;;;14.16;62.60
49585;BME280;35491;49.142;9.210;2022-11-03T11:34:37;99442.44;;;14.12;62.75
49585;BME280;35491;49.142;9.210;2022-11-03T11:37:32;99437.16;;;14.18;62.44
49585;BME280;35491;49.142;9.210;2022-11-03T11:38:54;99435.03;;;14.29;62.46
49585;BME280;35491;49.142;9.210;2022-11-03T11:39:58;99427.53;;;14.39;62.08
49585;BME280;35491;49.142;9.210;2022-11-03T11:41:02;99434.22;;;14.28;62.81
49585;BME280;35491;49.142;9.210;2022-11-03T11:42:08;99437.34;;;14.17;62.77
49585;BME280;35491;49.142;9.210;2022-11-03T11:43:24;99425.75;;;14.31;62.54
49585;BME280;35491;49.142;9.210;2022-11-03T11:46:31;99423.78;;;14.10;62.56
49585;BME280;35491;49.142;9.210;2022-11-03T11:47:49;99424.66;;;14.26;62.39
49585;BME280;35491;49.142;9.210;2022-11-03T11:49:02;99420.56;;;14.30;61.94
49585;BME280;35491;49.142;9.210;2022-11-03T11:50:26;99420.00;;;14.19;62.04
49585;BME280;35491;49.142;9.210;2022-11-03T11:51:32;99424.72;;;14.17;62.20
49585;BME280;35491;49.142;9.210;2022-11-03T11:52:38;99418.81;;;14.37;62.07
49585;BME280;35491;49.142;9.210;2022-11-03T11:53:47;99409.00;;;14.44;61.66
49585;BME280;35491;49.142;9.210;2022-11-03T11:54:55;99411.97;;;14.49;61.32
49585;BME280;35491;49.142;9.210;2022-11-03T11:56:00;99412.88;;;14.57;61.04
49585;BME280;35491;49.142;9.210;2022-11-03T11:57:32;99409.56;;;14.55;61.09
49585;BME280;35491;49.142;9.210;2022-11-03T11:58:39;99391.34;;;14.57;61.12
49585;BME280;35491;49.142;9.210;2022-11-03T11:59:44;99396.38;;;14.60;61.14
49585;BME280;35491;49.142;9.210;2022-11-03T12:00:52;99388.97;;;14.62;60.93
49585;BME280;35491;49.142;9.210;2022-11-03T12:02:28;99392.13;;;14.50;60.77
49585;BME280;35491;49.142;9.210;2022-11-03T12:03:35;99379.69;;;14.49;60.64
49585;BME280;35491;49.142;9.210;2022-11-03T12:04:45;99371.81;;;14.63;60.46
49585;BME280;35491;49.142;9.210;2022-11-03T12:05:50;99377.28;;;14.70;60.45
49585;BME280;35491;49.142;9.210;2022-11-03T12:06:57;99372.53;;;14.72;60.38
49585;BME280;35491;49.142;9.210;2022-11-03T12:08:16;99386.91;;;14.64;59.88
49585;BME280;35491;49.142;9.210;2022-11-03T12:12:46;99366.53;;;14.55;60.22
49585;BME280;35491;49.142;9.210;2022-11-03T12:13:50;99371.88;;;14.70;60.00
49585;BME280;35491;49.142;9.210;2022-11-03T12:14:53;99365.38;;;14.79;59.95
49585;BME280;35491;49.142;9.210;2022-11-03T12:15:59;99362.41;;;14.89;59.26
49585;BME280;35491;49.142;9.210;2022-11-03T12:18:39;99342.91;;;14.87;59.60
49585;BME280;35491;49.142;9.210;2022-11-03T12:19:45;99352.91;;;14.93;59.11
49585;BME280;35491;49.142;9.210;2022-11-03T12:20:52;99338.84;;;14.91;59.32
49585;BME280;35491;49.142;9.210;2022-11-03T12:21:54;99340.22;;;14.87;59.07
49585;BME280;35491;49.142;9.210;2022-11-03T12:23:03;99346.50;;;14.57;59.46
49585;BME280;35491;49.142;9.210;2022-11-03T12:24:36;99344.81;;;14.71;59.32
49585;BME280;35491;49.142;9.210;2022-11-03T12:25:40;99333.13;;;14.64;59.37
49585;BME280;35491;49.142;9.210;2022-11-03T12:26:44;99335.28;;;14.69;59.27
49585;BME280;35491;49.142;9.210;2022-11-03T12:27:51;99335.22;;;14.84;59.29
49585;BME280;35491;49.142;9.210;2022-11-03T12:28:55;99331.59;;;14.91;58.90
49585;BME280;35491;49.142;9.210;2022-11-03T12:30:00;99324.72;;;14.89;58.92